sensor_id;sensor_type;location;lat;lon;timestamp;P1;durP1;ratioP1;P2;durP2;ratioP2
71836;SDS011;59686;51.716;7.016;2023-11-19T00:00:35;2.93;;;2.73;;
71836;SDS011;59686;51.716;7.016;2023-11-19T00:03:01;4.27;;;3.70;;
71836;SDS011;59686;51.716;7.016;2023-11-19T00:05:27;5.17;;;3.67;;
71836;SDS011;59686;51.716;7.016;2023-11-19T00:07:53;5.13;;;3.70;;
71836;SDS011;59686;51.716;7.016;2023-11-19T00:10:18;4.63;;;4.00;;
71836;SDS011;59686;51.716;7.016;2023-11-19T00:12:45;4.43;;;4.03;;
71836;SDS011;59686;51.716;7.016;2023-11-19T00:15:12;4.40;;;4.00;;
71836;SDS011;59686;51.716;7.016;2023-11-19T00:17:39;5.30;;;4.13;;
71836;SDS011;59686;51.716;7.016;2023-11-19T00:20:06;4.70;;;4.30;;
71836;SDS011;59686;51.716;7.016;2023-11-19T00:22:32;5.27;;;4.23;;
71836;SDS011;59686;51.716;7.016;2023-11-19T00:24:58;4.80;;;4.30;;
71836;SDS011;59686;51.716;7.016;2023-11-19T00:27:24;4.93;;;4.43;;
71836;SDS011;59686;51.716;7.016;2023-11-19T00:29:51;5.10;;;4.60;;
71836;SDS011;59686;51.716;7.016;2023-11-19T00:32:16;5.27;;;4.77;;
71836;SDS011;59686;51.716;7.016;2023-11-19T00:34:45;5.90;;;4.80;;
71836;SDS011;59686;51.716;7.016;2023-11-19T00:37:12;7.73;;;4.97;;
71836;SDS011;59686;51.716;7.016;2023-11-19T00:39:39;5.37;;;4.63;;
71836;SDS011;59686;51.716;7.016;2023-11-19T00:42:04;6.53;;;5.00;;
71836;SDS011;59686;51.716;7.016;2023-11-19T00:44:30;6.30;;;5.70;;
71836;SDS011;59686;51.716;7.016;2023-11-19T00:46:56;7.30;;;6.37;;
71836;SDS011;59686;51.716;7.016;2023-11-19T00:49:21;8.80;;;6.13;;
71836;SDS011;59686;51.716;7.016;2023-11-19T00:51:47;8.57;;;6.47;;
71836;SDS011;59686;51.716;7.016;2023-11-19T00:54:17;7.57;;;6.53;;
71836;SDS011;59686;51.716;7.016;2023-11-19T00:56:42;9.23;;;7.60;;
71836;SDS011;59686;51.716;7.016;2023-11-19T00:59:08;7.93;;;7.13;;
71836;SDS011;59686;51.716;7.016;2023-11-19T01:01:33;8.37;;;7.57;;
71836;SDS011;59686;51.716;7.016;2023-11-19T01:03:59;9.87;;;7.73;;
71836;SDS011;59686;51.716;7.016;2023-11-19T01:06:28;8.53;;;7.47;;
71836;SDS011;59686;51.716;7.016;2023-11-19T01:08:55;8.93;;;7.50;;
71836;SDS011;59686;51.716;7.016;2023-11-19T01:11:22;10.13;;;7.70;;
71836;SDS011;59686;51.716;7.016;2023-11-19T01:13:48;9.10;;;7.97;;
71836;SDS011;59686;51.716;7.016;2023-11-19T01:16:15;10.20;;;7.70;;
71836;SDS011;59686;51.716;7.016;2023-11-19T01:18:41;8.53;;;7.40;;
71836;SDS011;59686;51.716;7.016;2023-11-19T01:21:06;8.53;;;7.63;;
71836;SDS011;59686;51.716;7.016;2023-11-19T01:23:33;9.80;;;7.50;;
71836;SDS011;59686;51.716;7.016;2023-11-19T01:25:59;9.87;;;7.60;;
71836;SDS011;59686;51.716;7.016;2023-11-19T01:28:25;7.63;;;6.83;;
71836;SDS011;59686;51.716;7.016;2023-11-19T01:30:51;8.07;;;6.73;;
71836;SDS011;59686;51.716;7.016;2023-11-19T01:33:17;9.23;;;6.43;;
71836;SDS011;59686;51.716;7.016;2023-11-19T01:35:42;7.70;;;6.33;;
71836;SDS011;59686;51.716;7.016;2023-11-19T01:38:08;7.10;;;6.40;;
71836;SDS011;59686;51.716;7.016;2023-11-19T01:40:34;7.63;;;6.20;;
71836;SDS011;59686;51.716;7.016;2023-11-19T01:43:01;6.57;;;5.73;;
71836;SDS011;59686;51.716;7.016;2023-11-19T01:45:28;6.13;;;5.33;;
71836;SDS011;59686;51.716;7.016;2023-11-19T01:47:56;7.83;;;5.60;;
71836;SDS011;59686;51.716;7.016;2023-11-19T01:50:22;6.03;;;5.43;;
71836;SDS011;59686;51.716;7.016;2023-11-19T01:52:50;6.40;;;5.30;;
71836;SDS011;59686;51.716;7.016;2023-11-19T01:55:20;5.53;;;4.73;;
71836;SDS011;59686;51.716;7.016;2023-11-19T01:57:46;7.00;;;5.10;;
71836;SDS011;59686;51.716;7.016;2023-11-19T02:00:14;5.23;;;4.63;;
71836;SDS011;59686;51.716;7.016;2023-11-19T02:02:41;5.07;;;4.30;;
71836;SDS011;59686;51.716;7.016;2023-11-19T02:05:10;5.47;;;3.97;;
71836;SDS011;59686;51.716;7.016;2023-11-19T02:07:36;4.83;;;3.53;;
71836;SDS011;59686;51.716;7.016;2023-11-19T02:10:02;4.53;;;3.43;;
71836;SDS011;59686;51.716;7.016;2023-11-19T02:12:30;3.70;;;3.30;;
71836;SDS011;59686;51.716;7.016;2023-11-19T02:15:00;4.63;;;3.70;;
71836;SDS011;59686;51.716;7.016;2023-11-19T02:17:28;3.73;;;3.03;;
71836;SDS011;59686;51.716;7.016;2023-11-19T02:19:56;4.00;;;3.03;;
71836;SDS011;59686;51.716;7.016;2023-11-19T02:22:22;6.03;;;3.03;;
71836;SDS011;59686;51.716;7.016;2023-11-19T02:24:49;3.33;;;2.90;;
71836;SDS011;59686;51.716;7.016;2023-11-19T02:27:21;5.13;;;3.20;;
71836;SDS011;59686;51.716;7.016;2023-11-19T02:29:59;3.67;;;2.60;;
71836;SDS011;59686;51.716;7.016;2023-11-19T02:32:27;4.00;;;2.60;;
71836;SDS011;59686;51.716;7.016;2023-11-19T02:34:53;4.13;;;2.70;;
71836;SDS011;59686;51.716;7.016;2023-11-19T02:37:18;3.50;;;2.70;;
71836;SDS011;59686;51.716;7.016;2023-11-19T02:39:44;5.67;;;2.50;;
71836;SDS011;59686;51.716;7.016;2023-11-19T02:42:10;5.70;;;2.40;;
71836;SDS011;59686;51.716;7.016;2023-11-19T02:44:36;2.47;;;2.27;;
71836;SDS011;59686;51.716;7.016;2023-11-19T02:47:01;4.37;;;2.27;;
71836;SDS011;59686;51.716;7.016;2023-11-19T02:49:30;3.47;;;1.80;;
71836;SDS011;59686;51.716;7.016;2023-11-19T02:51:56;5.63;;;2.20;;
71836;SDS011;59686;51.716;7.016;2023-11-19T02:54:21;3.10;;;2.30;;
71836;SDS011;59686;51.716;7.016;2023-11-19T02:56:52;3.43;;;2.20;;
71836;SDS011;59686;51.716;7.016;2023-11-19T02:59:21;6.00;;;2.33;;
71836;SDS011;59686;51.716;7.016;2023-11-19T03:01:54;4.77;;;2.53;;
71836;SDS011;59686;51.716;7.016;2023-11-19T03:04:20;4.07;;;2.17;;
71836;SDS011;59686;51.716;7.016;2023-11-19T03:06:46;4.07;;;1.90;;
71836;SDS011;59686;51.716;7.016;2023-11-19T03:09:12;2.87;;;2.00;;
71836;SDS011;59686;51.716;7.016;2023-11-19T03:11:37;3.40;;;2.20;;
71836;SDS011;59686;51.716;7.016;2023-11-19T03:14:03;5.47;;;2.10;;
71836;SDS011;59686;51.716;7.016;2023-11-19T03:16:31;3.37;;;2.23;;
71836;SDS011;59686;51.716;7.016;2023-11-19T03:18:57;9.80;;;2.17;;
71836;SDS011;59686;51.716;7.016;2023-11-19T03:21:29;3.80;;;1.90;;
71836;SDS011;59686;51.716;7.016;2023-11-19T03:23:56;5.33;;;2.17;;
71836;SDS011;59686;51.716;7.016;2023-11-19T03:26:23;4.57;;;2.03;;
71836;SDS011;59686;51.716;7.016;2023-11-19T03:28:48;5.00;;;2.13;;
71836;SDS011;59686;51.716;7.016;2023-11-19T03:31:14;7.80;;;3.10;;
71836;SDS011;59686;51.716;7.016;2023-11-19T03:33:40;8.97;;;2.10;;
71836;SDS011;59686;51.716;7.016;2023-11-19T03:36:05;7.23;;;2.37;;
71836;SDS011;59686;51.716;7.016;2023-11-19T03:38:32;6.67;;;2.17;;
71836;SDS011;59686;51.716;7.016;2023-11-19T03:40:58;7.67;;;2.80;;
71836;SDS011;59686;51.716;7.016;2023-11-19T03:43:24;9.13;;;3.37;;
71836;SDS011;59686;51.716;7.016;2023-11-19T03:45:49;9.07;;;2.73;;
71836;SDS011;59686;51.716;7.016;2023-11-19T03:48:15;9.30;;;2.53;;
71836;SDS011;59686;51.716;7.016;2023-11-19T03:50:41;6.20;;;2.60;;
71836;SDS011;59686;51.716;7.016;2023-11-19T03:53:07;8.10;;;3.20;;
71836;SDS011;59686;51.716;7.016;2023-11-19T03:55:33;7.73;;;3.13;;
71836;SDS011;59686;51.716;7.016;2023-11-19T03:57:58;10.77;;;2.70;;
71836;SDS011;59686;51.716;7.016;2023-11-19T04:00:24;11.13;;;3.00;;
71836;SDS011;59686;51.716;7.016;2023-11-19T04:02:50;11.57;;;3.00;;
71836;SDS011;59686;51.716;7.016;2023-11-19T04:05:15;10.17;;;2.90;;
71836;SDS011;59686;51.716;7.016;2023-11-19T04:07:43;9.23;;;3.00;;
71836;SDS011;59686;51.716;7.016;2023-11-19T04:10:09;11.20;;;3.53;;
71836;SDS011;59686;51.716;7.016;2023-11-19T04:12:35;7.17;;;2.80;;
71836;SDS011;59686;51.716;7.016;2023-11-19T04:15:00;11.67;;;3.10;;
71836;SDS011;59686;51.716;7.016;2023-11-19T04:17:26;8.40;;;2.73;;
71836;SDS011;59686;51.716;7.016;2023-11-19T04:19:52;10.07;;;3.00;;
71836;SDS011;59686;51.716;7.016;2023-11-19T04:22:17;8.77;;;3.07;;
71836;SDS011;59686;51.716;7.016;2023-11-19T04:24:43;8.77;;;3.20;;
71836;SDS011;59686;51.716;7.016;2023-11-19T04:27:10;10.53;;;3.37;;
71836;SDS011;59686;51.716;7.016;2023-11-19T04:29:36;7.67;;;2.70;;
71836;SDS011;59686;51.716;7.016;2023-11-19T04:32:01;8.20;;;2.80;;
71836;SDS011;59686;51.716;7.016;2023-11-19T04:34:27;9.27;;;3.10;;
71836;SDS011;59686;51.716;7.016;2023-11-19T04:36:53;11.33;;;3.83;;
71836;SDS011;59686;51.716;7.016;2023-11-19T04:39:19;11.10;;;3.27;;
71836;SDS011;59686;51.716;7.016;2023-11-19T04:41:51;12.37;;;3.83;;
71836;SDS011;59686;51.716;7.016;2023-11-19T04:44:24;8.27;;;3.10;;
71836;SDS011;59686;51.716;7.016;2023-11-19T04:46:50;13.60;;;3.77;;
71836;SDS011;59686;51.716;7.016;2023-11-19T04:49:15;11.47;;;3.50;;
71836;SDS011;59686;51.716;7.016;2023-11-19T04:51:42;12.40;;;3.60;;
71836;SDS011;59686;51.716;7.016;2023-11-19T04:54:08;11.37;;;4.00;;
71836;SDS011;59686;51.716;7.016;2023-11-19T04:56:38;11.70;;;3.80;;
71836;SDS011;59686;51.716;7.016;2023-11-19T04:59:04;13.27;;;3.20;;
71836;SDS011;59686;51.716;7.016;2023-11-19T05:01:33;9.27;;;3.70;;
71836;SDS011;59686;51.716;7.016;2023-11-19T05:04:00;13.63;;;3.70;;
71836;SDS011;59686;51.716;7.016;2023-11-19T05:06:30;11.33;;;3.43;;
71836;SDS011;59686;51.716;7.016;2023-11-19T05:08:56;15.77;;;3.50;;
71836;SDS011;59686;51.716;7.016;2023-11-19T05:11:23;12.23;;;4.23;;
71836;SDS011;59686;51.716;7.016;2023-11-19T05:13:49;19.33;;;3.87;;
71836;SDS011;59686;51.716;7.016;2023-11-19T05:16:15;11.10;;;3.50;;
71836;SDS011;59686;51.716;7.016;2023-11-19T05:18:42;13.30;;;3.40;;
71836;SDS011;59686;51.716;7.016;2023-11-19T05:21:08;17.83;;;4.10;;
71836;SDS011;59686;51.716;7.016;2023-11-19T05:23:33;16.17;;;4.23;;
71836;SDS011;59686;51.716;7.016;2023-11-19T05:26:00;14.33;;;3.87;;
71836;SDS011;59686;51.716;7.016;2023-11-19T05:28:26;17.47;;;3.73;;
71836;SDS011;59686;51.716;7.016;2023-11-19T05:30:52;15.60;;;3.90;;
71836;SDS011;59686;51.716;7.016;2023-11-19T05:33:18;14.10;;;3.40;;
71836;SDS011;59686;51.716;7.016;2023-11-19T05:35:43;19.13;;;4.20;;
71836;SDS011;59686;51.716;7.016;2023-11-19T05:38:12;18.33;;;4.20;;
71836;SDS011;59686;51.716;7.016;2023-11-19T05:40:38;14.73;;;3.80;;
71836;SDS011;59686;51.716;7.016;2023-11-19T05:43:04;14.63;;;3.67;;
71836;SDS011;59686;51.716;7.016;2023-11-19T05:45:31;16.70;;;4.10;;
71836;SDS011;59686;51.716;7.016;2023-11-19T05:47:58;17.00;;;4.27;;
71836;SDS011;59686;51.716;7.016;2023-11-19T05:50:24;15.83;;;4.50;;
71836;SDS011;59686;51.716;7.016;2023-11-19T05:52:52;20.30;;;5.23;;
71836;SDS011;59686;51.716;7.016;2023-11-19T05:55:18;18.20;;;5.37;;
71836;SDS011;59686;51.716;7.016;2023-11-19T05:57:44;15.80;;;4.73;;
71836;SDS011;59686;51.716;7.016;2023-11-19T06:00:10;22.63;;;4.97;;
71836;SDS011;59686;51.716;7.016;2023-11-19T06:02:38;19.83;;;5.20;;
71836;SDS011;59686;51.716;7.016;2023-11-19T06:05:04;20.47;;;5.03;;
71836;SDS011;59686;51.716;7.016;2023-11-19T06:07:31;23.53;;;5.77;;
71836;SDS011;59686;51.716;7.016;2023-11-19T06:10:01;15.90;;;4.90;;
71836;SDS011;59686;51.716;7.016;2023-11-19T06:12:29;25.83;;;5.57;;
71836;SDS011;59686;51.716;7.016;2023-11-19T06:14:54;24.53;;;5.53;;
71836;SDS011;59686;51.716;7.016;2023-11-19T06:17:21;23.53;;;5.37;;
71836;SDS011;59686;51.716;7.016;2023-11-19T06:19:47;19.07;;;4.80;;
71836;SDS011;59686;51.716;7.016;2023-11-19T06:22:13;15.90;;;4.73;;
71836;SDS011;59686;51.716;7.016;2023-11-19T06:24:38;17.17;;;4.60;;
71836;SDS011;59686;51.716;7.016;2023-11-19T06:27:04;19.43;;;5.73;;
71836;SDS011;59686;51.716;7.016;2023-11-19T06:29:29;24.47;;;5.33;;
71836;SDS011;59686;51.716;7.016;2023-11-19T06:31:55;22.17;;;5.40;;
71836;SDS011;59686;51.716;7.016;2023-11-19T06:34:21;20.50;;;4.87;;
71836;SDS011;59686;51.716;7.016;2023-11-19T06:36:46;20.77;;;5.57;;
71836;SDS011;59686;51.716;7.016;2023-11-19T06:39:13;20.73;;;4.13;;
71836;SDS011;59686;51.716;7.016;2023-11-19T06:41:44;18.43;;;4.90;;
71836;SDS011;59686;51.716;7.016;2023-11-19T06:44:10;23.03;;;5.37;;
71836;SDS011;59686;51.716;7.016;2023-11-19T06:46:36;19.00;;;4.60;;
71836;SDS011;59686;51.716;7.016;2023-11-19T06:49:01;20.43;;;5.10;;
71836;SDS011;59686;51.716;7.016;2023-11-19T06:51:27;17.83;;;4.70;;
71836;SDS011;59686;51.716;7.016;2023-11-19T06:53:53;18.77;;;5.13;;
71836;SDS011;59686;51.716;7.016;2023-11-19T06:56:22;21.17;;;4.33;;
71836;SDS011;59686;51.716;7.016;2023-11-19T06:58:51;25.53;;;4.60;;
71836;SDS011;59686;51.716;7.016;2023-11-19T07:01:17;16.10;;;4.40;;
71836;SDS011;59686;51.716;7.016;2023-11-19T07:03:46;23.07;;;5.67;;
71836;SDS011;59686;51.716;7.016;2023-11-19T07:06:12;18.03;;;4.17;;
71836;SDS011;59686;51.716;7.016;2023-11-19T07:08:38;22.00;;;4.70;;
71836;SDS011;59686;51.716;7.016;2023-11-19T07:11:06;23.57;;;5.03;;
71836;SDS011;59686;51.716;7.016;2023-11-19T07:13:31;15.03;;;4.37;;
71836;SDS011;59686;51.716;7.016;2023-11-19T07:15:57;21.23;;;4.63;;
71836;SDS011;59686;51.716;7.016;2023-11-19T07:18:23;25.93;;;6.53;;
71836;SDS011;59686;51.716;7.016;2023-11-19T07:20:50;22.27;;;5.83;;
71836;SDS011;59686;51.716;7.016;2023-11-19T07:23:23;19.83;;;5.43;;
71836;SDS011;59686;51.716;7.016;2023-11-19T07:25:49;18.83;;;5.23;;
71836;SDS011;59686;51.716;7.016;2023-11-19T07:28:17;16.93;;;4.63;;
71836;SDS011;59686;51.716;7.016;2023-11-19T07:30:42;18.73;;;4.70;;
71836;SDS011;59686;51.716;7.016;2023-11-19T07:33:08;21.27;;;4.73;;
71836;SDS011;59686;51.716;7.016;2023-11-19T07:35:33;25.53;;;5.60;;
71836;SDS011;59686;51.716;7.016;2023-11-19T07:38:00;23.70;;;5.33;;
71836;SDS011;59686;51.716;7.016;2023-11-19T07:40:26;22.30;;;4.80;;
71836;SDS011;59686;51.716;7.016;2023-11-19T07:42:51;21.47;;;5.10;;
71836;SDS011;59686;51.716;7.016;2023-11-19T07:45:17;19.53;;;4.43;;
71836;SDS011;59686;51.716;7.016;2023-11-19T07:47:43;23.63;;;4.77;;
71836;SDS011;59686;51.716;7.016;2023-11-19T07:50:12;23.20;;;4.73;;
71836;SDS011;59686;51.716;7.016;2023-11-19T07:52:44;19.87;;;4.80;;
71836;SDS011;59686;51.716;7.016;2023-11-19T07:55:10;23.07;;;5.30;;
71836;SDS011;59686;51.716;7.016;2023-11-19T07:57:35;14.57;;;4.33;;
71836;SDS011;59686;51.716;7.016;2023-11-19T08:00:01;14.80;;;4.43;;
71836;SDS011;59686;51.716;7.016;2023-11-19T08:02:32;18.83;;;4.93;;
71836;SDS011;59686;51.716;7.016;2023-11-19T08:04:58;17.70;;;5.07;;
71836;SDS011;59686;51.716;7.016;2023-11-19T08:07:23;20.40;;;5.20;;
71836;SDS011;59686;51.716;7.016;2023-11-19T08:09:49;18.40;;;4.80;;
71836;SDS011;59686;51.716;7.016;2023-11-19T08:12:14;24.43;;;5.27;;
71836;SDS011;59686;51.716;7.016;2023-11-19T08:14:41;20.50;;;5.00;;
71836;SDS011;59686;51.716;7.016;2023-11-19T08:17:08;20.40;;;4.93;;
71836;SDS011;59686;51.716;7.016;2023-11-19T08:19:34;18.37;;;4.30;;
71836;SDS011;59686;51.716;7.016;2023-11-19T08:22:00;25.77;;;5.10;;
71836;SDS011;59686;51.716;7.016;2023-11-19T08:24:25;26.43;;;4.87;;
71836;SDS011;59686;51.716;7.016;2023-11-19T08:26:51;16.47;;;4.97;;
71836;SDS011;59686;51.716;7.016;2023-11-19T08:29:17;15.03;;;4.10;;
71836;SDS011;59686;51.716;7.016;2023-11-19T08:31:42;22.07;;;4.97;;
71836;SDS011;59686;51.716;7.016;2023-11-19T08:34:08;21.50;;;4.67;;
71836;SDS011;59686;51.716;7.016;2023-11-19T08:36:34;19.63;;;4.57;;
71836;SDS011;59686;51.716;7.016;2023-11-19T08:39:00;17.33;;;4.07;;
71836;SDS011;59686;51.716;7.016;2023-11-19T08:41:26;19.87;;;4.97;;
71836;SDS011;59686;51.716;7.016;2023-11-19T08:43:52;22.10;;;4.73;;
71836;SDS011;59686;51.716;7.016;2023-11-19T08:46:18;19.50;;;4.53;;
71836;SDS011;59686;51.716;7.016;2023-11-19T08:48:44;21.67;;;4.87;;
71836;SDS011;59686;51.716;7.016;2023-11-19T08:51:11;22.00;;;5.07;;
71836;SDS011;59686;51.716;7.016;2023-11-19T08:53:37;16.67;;;4.40;;
71836;SDS011;59686;51.716;7.016;2023-11-19T08:56:03;21.13;;;4.43;;
71836;SDS011;59686;51.716;7.016;2023-11-19T08:58:30;20.17;;;4.37;;
71836;SDS011;59686;51.716;7.016;2023-11-19T09:00:57;19.07;;;5.40;;
71836;SDS011;59686;51.716;7.016;2023-11-19T09:03:23;20.53;;;4.77;;
71836;SDS011;59686;51.716;7.016;2023-11-19T09:05:50;20.53;;;4.57;;
71836;SDS011;59686;51.716;7.016;2023-11-19T09:08:17;23.07;;;4.80;;
71836;SDS011;59686;51.716;7.016;2023-11-19T09:10:43;22.50;;;5.10;;
71836;SDS011;59686;51.716;7.016;2023-11-19T09:13:08;25.40;;;5.17;;
71836;SDS011;59686;51.716;7.016;2023-11-19T09:15:34;19.17;;;4.53;;
71836;SDS011;59686;51.716;7.016;2023-11-19T09:18:00;22.70;;;4.17;;
71836;SDS011;59686;51.716;7.016;2023-11-19T09:20:25;24.27;;;4.67;;
71836;SDS011;59686;51.716;7.016;2023-11-19T09:22:51;26.13;;;4.53;;
71836;SDS011;59686;51.716;7.016;2023-11-19T09:25:17;22.43;;;4.67;;
71836;SDS011;59686;51.716;7.016;2023-11-19T09:27:43;20.93;;;4.50;;
71836;SDS011;59686;51.716;7.016;2023-11-19T09:30:09;22.60;;;4.63;;
71836;SDS011;59686;51.716;7.016;2023-11-19T09:32:35;25.63;;;4.90;;
71836;SDS011;59686;51.716;7.016;2023-11-19T09:35:02;22.50;;;5.00;;
71836;SDS011;59686;51.716;7.016;2023-11-19T09:37:28;20.60;;;4.93;;
71836;SDS011;59686;51.716;7.016;2023-11-19T09:39:54;25.27;;;5.40;;
71836;SDS011;59686;51.716;7.016;2023-11-19T09:42:20;24.17;;;5.23;;
71836;SDS011;59686;51.716;7.016;2023-11-19T09:44:45;23.67;;;4.80;;
71836;SDS011;59686;51.716;7.016;2023-11-19T09:47:13;20.67;;;4.67;;
71836;SDS011;59686;51.716;7.016;2023-11-19T09:49:41;18.63;;;4.17;;
71836;SDS011;59686;51.716;7.016;2023-11-19T09:52:07;21.60;;;4.97;;
71836;SDS011;59686;51.716;7.016;2023-11-19T09:54:32;18.00;;;4.73;;
71836;SDS011;59686;51.716;7.016;2023-11-19T09:56:58;23.23;;;5.10;;
71836;SDS011;59686;51.716;7.016;2023-11-19T09:59:30;20.33;;;4.40;;
71836;SDS011;59686;51.716;7.016;2023-11-19T10:01:56;15.60;;;4.73;;
71836;SDS011;59686;51.716;7.016;2023-11-19T10:04:22;18.87;;;4.10;;
71836;SDS011;59686;51.716;7.016;2023-11-19T10:06:49;22.37;;;4.90;;
71836;SDS011;59686;51.716;7.016;2023-11-19T10:09:16;23.43;;;4.73;;
71836;SDS011;59686;51.716;7.016;2023-11-19T10:11:42;26.63;;;5.63;;
71836;SDS011;59686;51.716;7.016;2023-11-19T10:14:08;24.63;;;5.33;;
71836;SDS011;59686;51.716;7.016;2023-11-19T10:16:34;21.33;;;4.70;;
71836;SDS011;59686;51.716;7.016;2023-11-19T10:19:00;17.20;;;4.30;;
71836;SDS011;59686;51.716;7.016;2023-11-19T10:21:27;20.37;;;5.17;;
71836;SDS011;59686;51.716;7.016;2023-11-19T10:23:54;22.23;;;4.90;;
71836;SDS011;59686;51.716;7.016;2023-11-19T10:26:25;18.03;;;4.70;;
71836;SDS011;59686;51.716;7.016;2023-11-19T10:28:51;19.30;;;4.90;;
71836;SDS011;59686;51.716;7.016;2023-11-19T10:31:17;21.27;;;4.47;;
71836;SDS011;59686;51.716;7.016;2023-11-19T10:33:44;22.87;;;4.50;;
71836;SDS011;59686;51.716;7.016;2023-11-19T10:36:11;22.67;;;4.63;;
71836;SDS011;59686;51.716;7.016;2023-11-19T10:38:37;18.33;;;4.87;;
71836;SDS011;59686;51.716;7.016;2023-11-19T10:41:04;22.27;;;4.50;;
71836;SDS011;59686;51.716;7.016;2023-11-19T10:43:30;23.90;;;5.20;;
71836;SDS011;59686;51.716;7.016;2023-11-19T10:46:09;17.83;;;4.20;;
71836;SDS011;59686;51.716;7.016;2023-11-19T10:48:38;18.93;;;4.10;;
71836;SDS011;59686;51.716;7.016;2023-11-19T10:51:05;23.10;;;4.97;;
71836;SDS011;59686;51.716;7.016;2023-11-19T10:53:38;21.97;;;4.73;;
71836;SDS011;59686;51.716;7.016;2023-11-19T10:56:06;23.93;;;4.73;;
71836;SDS011;59686;51.716;7.016;2023-11-19T10:58:38;22.30;;;5.07;;
71836;SDS011;59686;51.716;7.016;2023-11-19T11:01:15;23.43;;;5.97;;
71836;SDS011;59686;51.716;7.016;2023-11-19T11:03:45;22.03;;;4.20;;
71836;SDS011;59686;51.716;7.016;2023-11-19T11:06:11;17.80;;;4.40;;
71836;SDS011;59686;51.716;7.016;2023-11-19T11:08:38;24.03;;;4.83;;
71836;SDS011;59686;51.716;7.016;2023-11-19T11:11:05;21.13;;;5.30;;
71836;SDS011;59686;51.716;7.016;2023-11-19T11:13:33;27.20;;;4.80;;
71836;SDS011;59686;51.716;7.016;2023-11-19T11:16:01;23.93;;;5.33;;
71836;SDS011;59686;51.716;7.016;2023-11-19T11:18:29;29.83;;;6.20;;
71836;SDS011;59686;51.716;7.016;2023-11-19T11:21:15;21.03;;;4.90;;
71836;SDS011;59686;51.716;7.016;2023-11-19T11:26:47;27.00;;;5.10;;
71836;SDS011;59686;51.716;7.016;2023-11-19T11:29:46;24.63;;;4.93;;
71836;SDS011;59686;51.716;7.016;2023-11-19T11:37:28;20.80;;;4.50;;
71836;SDS011;59686;51.716;7.016;2023-11-19T11:40:01;25.87;;;5.17;;
71836;SDS011;59686;51.716;7.016;2023-11-19T11:42:38;26.50;;;5.07;;
71836;SDS011;59686;51.716;7.016;2023-11-19T11:45:05;27.30;;;5.20;;
71836;SDS011;59686;51.716;7.016;2023-11-19T11:50:10;25.10;;;5.27;;
71836;SDS011;59686;51.716;7.016;2023-11-19T11:58:02;21.33;;;4.77;;
71836;SDS011;59686;51.716;7.016;2023-11-19T12:02:59;24.53;;;5.53;;
71836;SDS011;59686;51.716;7.016;2023-11-19T12:05:25;17.77;;;4.13;;
71836;SDS011;59686;51.716;7.016;2023-11-19T12:08:10;21.93;;;4.57;;
71836;SDS011;59686;51.716;7.016;2023-11-19T12:10:47;19.33;;;5.00;;
71836;SDS011;59686;51.716;7.016;2023-11-19T12:13:19;23.10;;;5.33;;
71836;SDS011;59686;51.716;7.016;2023-11-19T12:18:31;24.83;;;5.03;;
71836;SDS011;59686;51.716;7.016;2023-11-19T12:21:01;29.50;;;5.40;;
71836;SDS011;59686;51.716;7.016;2023-11-19T12:23:30;18.80;;;4.23;;
71836;SDS011;59686;51.716;7.016;2023-11-19T12:26:01;17.97;;;4.27;;
71836;SDS011;59686;51.716;7.016;2023-11-19T12:28:28;20.83;;;4.50;;
71836;SDS011;59686;51.716;7.016;2023-11-19T12:30:54;23.40;;;4.53;;
71836;SDS011;59686;51.716;7.016;2023-11-19T12:33:35;19.37;;;4.47;;
71836;SDS011;59686;51.716;7.016;2023-11-19T12:36:01;20.90;;;4.30;;
71836;SDS011;59686;51.716;7.016;2023-11-19T12:38:30;19.93;;;4.40;;
71836;SDS011;59686;51.716;7.016;2023-11-19T12:41:03;24.30;;;4.43;;
71836;SDS011;59686;51.716;7.016;2023-11-19T12:43:33;14.73;;;4.13;;
71836;SDS011;59686;51.716;7.016;2023-11-19T12:45:59;15.87;;;4.23;;
71836;SDS011;59686;51.716;7.016;2023-11-19T12:48:25;16.87;;;4.67;;
71836;SDS011;59686;51.716;7.016;2023-11-19T12:50:59;20.33;;;4.53;;
71836;SDS011;59686;51.716;7.016;2023-11-19T12:53:26;18.33;;;4.00;;
71836;SDS011;59686;51.716;7.016;2023-11-19T12:55:53;17.53;;;4.10;;
71836;SDS011;59686;51.716;7.016;2023-11-19T12:58:30;20.63;;;4.87;;
71836;SDS011;59686;51.716;7.016;2023-11-19T13:03:34;15.37;;;3.60;;
71836;SDS011;59686;51.716;7.016;2023-11-19T13:11:10;18.30;;;4.37;;
71836;SDS011;59686;51.716;7.016;2023-11-19T13:16:25;22.20;;;4.70;;
71836;SDS011;59686;51.716;7.016;2023-11-19T13:19:01;20.80;;;4.97;;
71836;SDS011;59686;51.716;7.016;2023-11-19T13:21:27;15.93;;;5.03;;
71836;SDS011;59686;51.716;7.016;2023-11-19T13:23:54;24.97;;;6.80;;
71836;SDS011;59686;51.716;7.016;2023-11-19T13:26:21;19.97;;;5.80;;
71836;SDS011;59686;51.716;7.016;2023-11-19T13:28:48;18.63;;;5.00;;
71836;SDS011;59686;51.716;7.016;2023-11-19T13:31:14;15.80;;;4.37;;
71836;SDS011;59686;51.716;7.016;2023-11-19T13:33:39;20.27;;;4.77;;
71836;SDS011;59686;51.716;7.016;2023-11-19T13:36:06;20.07;;;4.60;;
71836;SDS011;59686;51.716;7.016;2023-11-19T13:38:35;16.53;;;4.20;;
71836;SDS011;59686;51.716;7.016;2023-11-19T13:41:02;15.67;;;4.07;;
71836;SDS011;59686;51.716;7.016;2023-11-19T13:43:29;13.33;;;4.33;;
71836;SDS011;59686;51.716;7.016;2023-11-19T13:45:55;17.73;;;4.03;;
71836;SDS011;59686;51.716;7.016;2023-11-19T13:48:21;13.90;;;4.23;;
71836;SDS011;59686;51.716;7.016;2023-11-19T13:50:47;17.60;;;4.30;;
71836;SDS011;59686;51.716;7.016;2023-11-19T13:53:13;12.83;;;3.50;;
71836;SDS011;59686;51.716;7.016;2023-11-19T13:55:42;19.37;;;4.57;;
71836;SDS011;59686;51.716;7.016;2023-11-19T13:58:08;15.97;;;3.97;;
71836;SDS011;59686;51.716;7.016;2023-11-19T14:00:35;15.70;;;4.10;;
71836;SDS011;59686;51.716;7.016;2023-11-19T14:03:01;13.60;;;3.60;;
71836;SDS011;59686;51.716;7.016;2023-11-19T14:07:56;16.43;;;3.87;;
71836;SDS011;59686;51.716;7.016;2023-11-19T14:10:22;16.47;;;4.10;;
71836;SDS011;59686;51.716;7.016;2023-11-19T14:12:49;13.83;;;3.90;;
71836;SDS011;59686;51.716;7.016;2023-11-19T14:15:15;18.00;;;4.27;;
71836;SDS011;59686;51.716;7.016;2023-11-19T14:17:44;15.90;;;3.60;;
71836;SDS011;59686;51.716;7.016;2023-11-19T14:20:10;15.97;;;3.87;;
71836;SDS011;59686;51.716;7.016;2023-11-19T14:22:40;12.97;;;3.33;;
71836;SDS011;59686;51.716;7.016;2023-11-19T14:25:08;14.57;;;3.33;;
71836;SDS011;59686;51.716;7.016;2023-11-19T14:27:37;17.47;;;3.93;;
71836;SDS011;59686;51.716;7.016;2023-11-19T14:30:05;14.77;;;3.57;;
71836;SDS011;59686;51.716;7.016;2023-11-19T14:32:33;13.17;;;4.23;;
71836;SDS011;59686;51.716;7.016;2023-11-19T14:34:58;13.60;;;3.40;;
71836;SDS011;59686;51.716;7.016;2023-11-19T14:37:24;12.30;;;3.67;;
71836;SDS011;59686;51.716;7.016;2023-11-19T14:39:50;13.43;;;4.00;;
71836;SDS011;59686;51.716;7.016;2023-11-19T14:42:18;14.67;;;3.90;;
71836;SDS011;59686;51.716;7.016;2023-11-19T14:44:44;12.10;;;3.80;;
71836;SDS011;59686;51.716;7.016;2023-11-19T14:47:09;11.87;;;3.17;;
71836;SDS011;59686;51.716;7.016;2023-11-19T14:49:35;13.50;;;3.33;;
71836;SDS011;59686;51.716;7.016;2023-11-19T14:52:02;14.27;;;3.43;;
71836;SDS011;59686;51.716;7.016;2023-11-19T14:54:28;13.57;;;3.70;;
71836;SDS011;59686;51.716;7.016;2023-11-19T14:56:54;12.70;;;3.37;;
71836;SDS011;59686;51.716;7.016;2023-11-19T15:01:50;18.00;;;3.38;;
71836;SDS011;59686;51.716;7.016;2023-11-19T15:04:16;12.68;;;3.22;;
71836;SDS011;59686;51.716;7.016;2023-11-19T15:06:42;10.93;;;2.97;;
71836;SDS011;59686;51.716;7.016;2023-11-19T15:09:08;16.63;;;3.67;;
71836;SDS011;59686;51.716;7.016;2023-11-19T15:11:35;12.77;;;3.43;;
71836;SDS011;59686;51.716;7.016;2023-11-19T15:14:00;12.33;;;3.40;;